James L. Oberstar — WDC6154 — position and weather

sailwx.info

Track history (hours):
 
Tides and Currents Weather Stations Pressure Air Temp Water Temp Dewpoint Dewpoint Depression Visibility Wind Speed Wind Dir Waves Ship Positions

James L. Oberstar

Owner: Destin Trading Corporation, harahan, LA. More information available from US FCC via Universal Licensing System and Coast Guard Vessel Documentation Center.

Last reported at 2016-Dec-07 23:24 UTC. Time now 2016-Dec-08 04:08 UTC.
Position N 29°45' W 095°06'.

Length 26 m.

Type: Towing. MMSI: 367052120.

Date/timePositionNaut miles runAvg speedWind from/ knotsBaromVisibWave heightAir tempDewpointWater temp
2016-Dec-07 23:24N 29°45' W 095°06'0 0.0
2016-Dec-07 22:33N 29°45' W 095°06'0 0.0
2016-Dec-07 21:33N 29°45' W 095°06'0 0.0
2016-Dec-07 20:33N 29°45' W 095°06'2 2.3
2016-Dec-07 19:33N 29°47' W 095°05'0 0.1
2016-Dec-07 18:33N 29°47' W 095°05'0 0.0
2016-Dec-07 17:33N 29°47' W 095°05'0 0.0
2016-Dec-07 16:33N 29°47' W 095°05'0 0.0
2016-Dec-07 15:34N 29°47' W 095°05'0 0.0
2016-Dec-07 14:33N 29°47' W 095°05'0 0.0
2016-Dec-07 13:33N 29°47' W 095°05'0 0.0
2016-Dec-07 12:33N 29°47' W 095°05'0 0.0
2016-Dec-07 11:29N 29°47' W 095°05'0 0.0
2016-Dec-07 10:22N 29°47' W 095°05'0 0.0
2016-Dec-07 09:22N 29°47' W 095°05'0 0.0
2016-Dec-07 08:33N 29°47' W 095°05'0 0.0
2016-Dec-07 07:33N 29°47' W 095°05'0 0.0
2016-Dec-07 06:31N 29°47' W 095°05'0 0.0
2016-Dec-07 05:29N 29°47' W 095°05'0 0.0
2016-Dec-07 04:29N 29°47' W 095°05'0 0.0
2016-Dec-07 02:30N 29°47' W 095°05'0 0.0
2016-Dec-07 01:33N 29°47' W 095°05'0 0.0
2016-Dec-07 00:28N 29°47' W 095°05'0 0.0
2016-Dec-06 23:33N 29°47' W 095°05'0 0.1
2016-Dec-06 22:33N 29°47' W 095°05'0 0.1
2016-Dec-06 21:33N 29°47' W 095°05'0 0.0
2016-Dec-06 20:33N 29°47' W 095°05'0 0.0
2016-Dec-06 18:33N 29°47' W 095°05'0 0.0
2016-Dec-06 17:33N 29°47' W 095°05'0 0.0
2016-Dec-06 16:33N 29°47' W 095°05'0 0.0
2016-Dec-06 15:33N 29°47' W 095°05'0 0.0
2016-Dec-06 14:33N 29°47' W 095°05'0 0.0
2016-Dec-06 13:33N 29°47' W 095°05'0 0.0
2016-Dec-06 04:26N 29°47' W 095°05'0 0.0
2016-Dec-06 03:16N 29°47' W 095°05'0 0.0
2016-Dec-06 02:21N 29°47' W 095°05'0 0.0
2016-Dec-06 01:31N 29°47' W 095°05'0 0.0
2016-Dec-06 00:32N 29°47' W 095°05'0 0.0
2016-Dec-05 23:33N 29°47' W 095°05'0 0.0
2016-Dec-05 22:33N 29°47' W 095°05'0 0.0
2016-Dec-05 21:33N 29°47' W 095°05'0 0.1
2016-Dec-05 20:33N 29°47' W 095°05'3 2.9
2016-Dec-05 19:33N 29°44' W 095°03'5 4.9
2016-Dec-05 18:33N 29°41' W 094°59'7 6.8
2016-Dec-05 17:33N 29°35' W 094°56'7 7.2
2016-Dec-05 16:33N 29°29' W 094°51'3 0.1
2016-Dec-03 22:15N 29°31' W 094°53'5 7.2
2016-Dec-03 21:33N 29°35' W 094°56'7 6.9
2016-Dec-03 20:33N 29°41' W 094°60'0 0.5
2016-Dec-03 19:33N 29°41' W 095°00'0 0.0
2016-Dec-03 18:33N 29°41' W 095°00'0 0.0
2016-Dec-03 17:33N 29°41' W 095°00'0 0.0
2016-Dec-03 16:33N 29°41' W 095°00'0 0.0
2016-Dec-03 15:33N 29°41' W 095°00'0 0.0
2016-Dec-03 14:33N 29°41' W 095°00'0 0.0
2016-Dec-03 13:33N 29°41' W 095°00'0 0.0
2016-Dec-03 12:33N 29°41' W 095°00'0 0.0
2016-Dec-03 04:33N 29°41' W 095°00'0 0.0
2016-Dec-03 03:29N 29°41' W 095°00'0 0.0
2016-Dec-03 02:32N 29°41' W 095°00'0 0.0
2016-Dec-03 01:33N 29°41' W 095°00'0 0.0
2016-Dec-03 00:26N 29°41' W 095°00'0 0.0
2016-Dec-02 23:32N 29°41' W 095°00'0 0.0
2016-Dec-02 22:33N 29°41' W 095°00'2 1.9
2016-Dec-02 21:34N 29°43' W 095°01'5 4.7
2016-Dec-02 20:34N 29°45' W 095°06'0 0.2
2016-Dec-02 19:32N 29°45' W 095°06'0 0.0
2016-Dec-02 18:33N 29°45' W 095°06'0 0.0
2016-Dec-02 17:34N 29°45' W 095°06'0 0.0
2016-Dec-02 16:34N 29°45' W 095°06'0 0.0
2016-Dec-02 15:33N 29°45' W 095°06'0 0.0
2016-Dec-02 14:33N 29°45' W 095°06'0 0.0
2016-Dec-02 13:33N 29°45' W 095°06'3 0.1
2016-Dec-01 10:18N 29°47' W 095°05'0 0.0
2016-Dec-01 09:32N 29°47' W 095°05'0 0.0
2016-Dec-01 08:28N 29°47' W 095°05'0 0.0
2016-Dec-01 07:32N 29°47' W 095°05'0 0.0
2016-Dec-01 06:32N 29°47' W 095°05'0 0.0
2016-Dec-01 05:30N 29°47' W 095°05'0 0.0
2016-Dec-01 04:20N 29°47' W 095°05'0 0.0
2016-Dec-01 03:31N 29°47' W 095°05'0 0.0
2016-Nov-29 15:33N 29°47' W 095°05'0 0.0
2016-Nov-29 14:33N 29°47' W 095°05'0 0.0
2016-Nov-29 13:21N 29°47' W 095°05'2 0.3
2016-Nov-29 06:31N 29°45' W 095°04'5 5.3
2016-Nov-29 05:33N 29°42' W 094°60'5 5.3
2016-Nov-29 04:33N 29°37' W 094°57'7 6.9
2016-Nov-29 03:33N 29°31' W 094°53'  
Track history (hours):
 
Tides and Currents Weather Stations Pressure Air Temp Water Temp Dewpoint Dewpoint Depression Visibility Wind Speed Wind Dir Waves Ship Positions

James L. Oberstar

Owner: Destin Trading Corporation, harahan, LA. More information available from US FCC via Universal Licensing System and Coast Guard Vessel Documentation Center.

Last reported at 2016-Dec-07 23:24 UTC. Time now 2016-Dec-08 04:08 UTC.
Position N 29°45' W 095°06'.

Length 26 m.

Type: Towing. MMSI: 367052120.

Date/timePositionNaut miles runAvg speedWind from/ knotsBaromVisibWave heightAir tempDewpointWater temp
2016-Dec-07 23:24N 29°45' W 095°06'0 0.0
2016-Dec-07 22:33N 29°45' W 095°06'0 0.0
2016-Dec-07 21:33N 29°45' W 095°06'0 0.0
2016-Dec-07 20:33N 29°45' W 095°06'2 2.3
2016-Dec-07 19:33N 29°47' W 095°05'0 0.1
2016-Dec-07 18:33N 29°47' W 095°05'0 0.0
2016-Dec-07 17:33N 29°47' W 095°05'0 0.0
2016-Dec-07 16:33N 29°47' W 095°05'0 0.0
2016-Dec-07 15:34N 29°47' W 095°05'0 0.0
2016-Dec-07 14:33N 29°47' W 095°05'0 0.0
2016-Dec-07 13:33N 29°47' W 095°05'0 0.0
2016-Dec-07 12:33N 29°47' W 095°05'0 0.0
2016-Dec-07 11:29N 29°47' W 095°05'0 0.0
2016-Dec-07 10:22N 29°47' W 095°05'0 0.0
2016-Dec-07 09:22N 29°47' W 095°05'0 0.0
2016-Dec-07 08:33N 29°47' W 095°05'0 0.0
2016-Dec-07 07:33N 29°47' W 095°05'0 0.0
2016-Dec-07 06:31N 29°47' W 095°05'0 0.0
2016-Dec-07 05:29N 29°47' W 095°05'0 0.0
2016-Dec-07 04:29N 29°47' W 095°05'0 0.0
2016-Dec-07 02:30N 29°47' W 095°05'0 0.0
2016-Dec-07 01:33N 29°47' W 095°05'0 0.0
2016-Dec-07 00:28N 29°47' W 095°05'0 0.0
2016-Dec-06 23:33N 29°47' W 095°05'0 0.1
2016-Dec-06 22:33N 29°47' W 095°05'0 0.1
2016-Dec-06 21:33N 29°47' W 095°05'0 0.0
2016-Dec-06 20:33N 29°47' W 095°05'0 0.0
2016-Dec-06 18:33N 29°47' W 095°05'0 0.0
2016-Dec-06 17:33N 29°47' W 095°05'0 0.0
2016-Dec-06 16:33N 29°47' W 095°05'0 0.0
2016-Dec-06 15:33N 29°47' W 095°05'0 0.0
2016-Dec-06 14:33N 29°47' W 095°05'0 0.0
2016-Dec-06 13:33N 29°47' W 095°05'0 0.0
2016-Dec-06 04:26N 29°47' W 095°05'0 0.0
2016-Dec-06 03:16N 29°47' W 095°05'0 0.0
2016-Dec-06 02:21N 29°47' W 095°05'0 0.0
2016-Dec-06 01:31N 29°47' W 095°05'0 0.0
2016-Dec-06 00:32N 29°47' W 095°05'0 0.0
2016-Dec-05 23:33N 29°47' W 095°05'0 0.0
2016-Dec-05 22:33N 29°47' W 095°05'0 0.0
2016-Dec-05 21:33N 29°47' W 095°05'0 0.1
2016-Dec-05 20:33N 29°47' W 095°05'3 2.9
2016-Dec-05 19:33N 29°44' W 095°03'5 4.9
2016-Dec-05 18:33N 29°41' W 094°59'7 6.8
2016-Dec-05 17:33N 29°35' W 094°56'7 7.2
2016-Dec-05 16:33N 29°29' W 094°51'3 0.1
2016-Dec-03 22:15N 29°31' W 094°53'5 7.2
2016-Dec-03 21:33N 29°35' W 094°56'7 6.9
2016-Dec-03 20:33N 29°41' W 094°60'0 0.5
2016-Dec-03 19:33N 29°41' W 095°00'0 0.0
2016-Dec-03 18:33N 29°41' W 095°00'0 0.0
2016-Dec-03 17:33N 29°41' W 095°00'0 0.0
2016-Dec-03 16:33N 29°41' W 095°00'0 0.0
2016-Dec-03 15:33N 29°41' W 095°00'0 0.0
2016-Dec-03 14:33N 29°41' W 095°00'0 0.0
2016-Dec-03 13:33N 29°41' W 095°00'0 0.0
2016-Dec-03 12:33N 29°41' W 095°00'0 0.0
2016-Dec-03 04:33N 29°41' W 095°00'0 0.0
2016-Dec-03 03:29N 29°41' W 095°00'0 0.0
2016-Dec-03 02:32N 29°41' W 095°00'0 0.0
2016-Dec-03 01:33N 29°41' W 095°00'0 0.0
2016-Dec-03 00:26N 29°41' W 095°00'0 0.0
2016-Dec-02 23:32N 29°41' W 095°00'0 0.0
2016-Dec-02 22:33N 29°41' W 095°00'2 1.9
2016-Dec-02 21:34N 29°43' W 095°01'5 4.7
2016-Dec-02 20:34N 29°45' W 095°06'0 0.2
2016-Dec-02 19:32N 29°45' W 095°06'0 0.0
2016-Dec-02 18:33N 29°45' W 095°06'0 0.0
2016-Dec-02 17:34N 29°45' W 095°06'0 0.0
2016-Dec-02 16:34N 29°45' W 095°06'0 0.0
2016-Dec-02 15:33N 29°45' W 095°06'0 0.0
2016-Dec-02 14:33N 29°45' W 095°06'0 0.0
2016-Dec-02 13:33N 29°45' W 095°06'3 0.1
2016-Dec-01 10:18N 29°47' W 095°05'0 0.0
2016-Dec-01 09:32N 29°47' W 095°05'0 0.0
2016-Dec-01 08:28N 29°47' W 095°05'0 0.0
2016-Dec-01 07:32N 29°47' W 095°05'0 0.0
2016-Dec-01 06:32N 29°47' W 095°05'0 0.0
2016-Dec-01 05:30N 29°47' W 095°05'0 0.0
2016-Dec-01 04:20N 29°47' W 095°05'0 0.0
2016-Dec-01 03:31N 29°47' W 095°05'0 0.0
2016-Nov-29 15:33N 29°47' W 095°05'0 0.0
2016-Nov-29 14:33N 29°47' W 095°05'0 0.0
2016-Nov-29 13:21N 29°47' W 095°05'2 0.3
2016-Nov-29 06:31N 29°45' W 095°04'5 5.3
2016-Nov-29 05:33N 29°42' W 094°60'5 5.3
2016-Nov-29 04:33N 29°37' W 094°57'7 6.9
2016-Nov-29 03:33N 29°31' W 094°53'  

Dump ship's entire track history